Time;durP1;ratioP1;P1;durP2;ratioP2;P2;SDS_P1;SDS_P2;PMS_P1;PMS_P2;Temp;Humidity;BMP_temperature;BMP_pressure;BME280_temperature;BME280_humidity;BME280_pressure;Samples;Min_cycle;Max_cycle;Signal;HPM_P1;HPM_P2
2022/12/07 00:01:25;;;;;;;80.93;30.98;;;;;;;;;;5071023;28;20064;-49
2022/12/07 00:03:53;;;;;;;83.78;32.80;;;;;;;;;;5068218;28;20048;-48
2022/12/07 00:06:20;;;;;;;102.72;36.10;;;;;;;;;;5070844;28;20080;-49
2022/12/07 00:08:47;;;;;;;80.60;32.70;;;;;;;;;;5071009;28;20067;-48
2022/12/07 00:11:19;;;;;;;89.15;34.33;;;;;;;;;;5070869;28;20045;-46
2022/12/07 00:13:47;;;;;;;89.90;35.97;;;;;;;;;;5071723;28;20040;-46
2022/12/07 00:16:15;;;;;;;129.23;41.67;;;;;;;;;;5070855;28;20055;-47
2022/12/07 00:18:42;;;;;;;81.20;33.60;;;;;;;;;;5070242;28;20028;-47
2022/12/07 00:21:10;;;;;;;106.28;38.97;;;;;;;;;;5071370;28;20049;-47
2022/12/07 00:23:37;;;;;;;98.13;32.95;;;;;;;;;;5071091;28;20481;-49
2022/12/07 00:26:07;;;;;;;102.43;35.67;;;;;;;;;;5070692;28;20459;-47
2022/12/07 00:28:34;;;;;;;101.90;36.70;;;;;;;;;;5067481;28;20043;-46
2022/12/07 00:31:11;;;;;;;98.25;34.83;;;;;;;;;;5071106;28;20546;-47
2022/12/07 00:33:38;;;;;;;82.75;32.75;;;;;;;;;;5071594;28;20040;-46
2022/12/07 00:36:06;;;;;;;87.50;30.88;;;;;;;;;;5069974;28;20519;-47
2022/12/07 00:38:33;;;;;;;101.38;34.10;;;;;;;;;;5065899;28;20056;-46
2022/12/07 00:41:02;;;;;;;101.05;35.63;;;;;;;;;;5070861;28;20110;-47
2022/12/07 00:43:28;;;;;;;83.55;29.40;;;;;;;;;;5070000;28;20423;-46
2022/12/07 00:45:55;;;;;;;78.97;29.05;;;;;;;;;;5070873;28;20468;-46
2022/12/07 00:48:22;;;;;;;74.60;28.88;;;;;;;;;;5071662;28;20080;-48
2022/12/07 00:50:49;;;;;;;96.05;30.77;;;;;;;;;;5070801;28;20519;-46
2022/12/07 00:53:16;;;;;;;62.17;25.35;;;;;;;;;;5070749;28;20115;-47
2022/12/07 00:55:43;;;;;;;72.97;27.77;;;;;;;;;;5070763;28;20119;-47
2022/12/07 00:58:09;;;;;;;78.53;26.73;;;;;;;;;;5070604;28;20061;-47
2022/12/07 01:00:37;;;;;;;86.05;28.42;;;;;;;;;;5070862;28;20500;-45
2022/12/07 01:03:04;;;;;;;70.35;27.23;;;;;;;;;;5070152;28;20040;-46
2022/12/07 01:05:31;;;;;;;77.90;27.30;;;;;;;;;;5069413;28;20051;-45
2022/12/07 01:07:57;;;;;;;76.25;27.20;;;;;;;;;;5068982;28;20063;-45
2022/12/07 01:10:24;;;;;;;71.55;26.15;;;;;;;;;;5068825;28;20051;-45
2022/12/07 01:12:50;;;;;;;58.25;21.05;;;;;;;;;;5069768;28;20044;-48
2022/12/07 01:15:17;;;;;;;60.33;24.23;;;;;;;;;;5070990;28;20131;-46
2022/12/07 01:17:43;;;;;;;49.35;20.17;;;;;;;;;;5070427;28;20047;-48
2022/12/07 01:20:10;;;;;;;67.03;22.17;;;;;;;;;;5068084;28;20052;-46
2022/12/07 01:22:38;;;;;;;69.05;22.58;;;;;;;;;;5068632;28;20052;-48
2022/12/07 01:25:05;;;;;;;64.82;20.95;;;;;;;;;;5070350;28;20040;-46
2022/12/07 01:27:32;;;;;;;69.18;22.33;;;;;;;;;;5070843;28;20449;-44
2022/12/07 01:29:59;;;;;;;61.83;20.98;;;;;;;;;;5069389;28;20132;-45
2022/12/07 01:32:26;;;;;;;74.07;24.95;;;;;;;;;;5069564;28;20048;-46
2022/12/07 01:34:53;;;;;;;76.47;25.38;;;;;;;;;;5069294;28;20036;-46
2022/12/07 01:37:19;;;;;;;66.00;21.65;;;;;;;;;;5069323;28;20044;-45
2022/12/07 01:39:50;;;;;;;58.38;22.40;;;;;;;;;;5071027;28;20119;-46
2022/12/07 01:42:17;;;;;;;73.07;25.48;;;;;;;;;;5070034;28;20044;-45
2022/12/07 01:45:01;;;;;;;77.50;26.23;;;;;;;;;;5069686;28;20044;-46
2022/12/07 01:47:28;;;;;;;82.00;27.10;;;;;;;;;;5069387;28;20091;-45
2022/12/07 01:49:55;;;;;;;82.93;27.40;;;;;;;;;;5066001;28;20036;-46
2022/12/07 01:52:23;;;;;;;79.53;27.73;;;;;;;;;;5069702;28;20051;-46
2022/12/07 01:54:53;;;;;;;91.20;29.98;;;;;;;;;;5068919;28;20045;-46
2022/12/07 01:57:20;;;;;;;93.85;31.45;;;;;;;;;;5069497;28;20045;-45
2022/12/07 01:59:48;;;;;;;74.38;26.98;;;;;;;;;;5068756;28;20032;-44
2022/12/07 02:02:41;;;;;;;98.32;32.20;;;;;;;;;;5067356;28;20052;-45
2022/12/07 02:05:08;;;;;;;109.65;33.17;;;;;;;;;;5062225;28;20493;-46
2022/12/07 02:07:36;;;;;;;140.95;38.38;;;;;;;;;;5068508;28;20059;-46
2022/12/07 02:10:13;;;;;;;126.03;35.72;;;;;;;;;;5069017;28;20080;-47
2022/12/07 02:12:40;;;;;;;71.35;27.75;;;;;;;;;;5068936;28;20053;-46
2022/12/07 02:15:06;;;;;;;95.35;33.80;;;;;;;;;;5068418;28;20067;-46
2022/12/07 02:17:51;;;;;;;68.40;27.00;;;;;;;;;;5068502;28;20052;-48
2022/12/07 02:20:26;;;;;;;120.28;34.50;;;;;;;;;;5067257;28;20043;-45
2022/12/07 02:22:53;;;;;;;68.00;26.35;;;;;;;;;;5065890;28;20784;-46
2022/12/07 02:25:30;;;;;;;75.90;27.95;;;;;;;;;;5068986;28;20052;-48
2022/12/07 02:28:04;;;;;;;82.72;28.88;;;;;;;;;;5068600;28;20044;-49
2022/12/07 02:30:33;;;;;;;101.90;32.40;;;;;;;;;;5067498;28;20074;-48
2022/12/07 02:33:05;;;;;;;76.78;26.58;;;;;;;;;;5068195;28;20032;-48
2022/12/07 02:35:44;;;;;;;80.53;28.42;;;;;;;;;;5068002;28;20046;-47
2022/12/07 02:38:29;;;;;;;74.55;25.65;;;;;;;;;;5066517;28;20043;-50
2022/12/07 02:41:02;;;;;;;83.05;29.10;;;;;;;;;;5065620;28;20047;-48
2022/12/07 02:43:30;;;;;;;101.68;33.80;;;;;;;;;;5068119;28;20056;-51
2022/12/07 02:46:17;;;;;;;93.28;29.63;;;;;;;;;;5067918;28;20044;-51
2022/12/07 02:48:45;;;;;;;96.53;32.20;;;;;;;;;;5068931;28;20143;-46
2022/12/07 02:51:11;;;;;;;85.25;30.13;;;;;;;;;;5068119;28;20048;-45
2022/12/07 02:53:40;;;;;;;79.18;29.73;;;;;;;;;;5068828;28;20041;-46
2022/12/07 02:56:06;;;;;;;91.25;31.67;;;;;;;;;;5067630;28;20101;-46
2022/12/07 02:58:56;;;;;;;67.13;24.33;;;;;;;;;;5068024;28;20040;-50
2022/12/07 03:01:26;;;;;;;66.72;24.98;;;;;;;;;;5062094;28;20106;-50
2022/12/07 03:04:11;;;;;;;66.43;24.13;;;;;;;;;;5066989;28;20052;-48
2022/12/07 03:06:42;;;;;;;77.97;23.13;;;;;;;;;;5064102;28;20148;-49
2022/12/07 03:09:08;;;;;;;87.63;26.75;;;;;;;;;;5068323;28;20040;-48
2022/12/07 03:11:42;;;;;;;66.05;24.35;;;;;;;;;;5067743;28;20505;-49
2022/12/07 03:14:15;;;;;;;72.03;23.27;;;;;;;;;;5064465;28;20037;-48
2022/12/07 03:16:52;;;;;;;49.90;17.92;;;;;;;;;;5068560;28;20487;-46
2022/12/07 03:19:19;;;;;;;51.08;19.67;;;;;;;;;;5067103;28;20113;-50
2022/12/07 03:21:49;;;;;;;49.03;16.42;;;;;;;;;;5069531;28;20036;-46
2022/12/07 03:24:18;;;;;;;47.70;17.35;;;;;;;;;;5068679;28;20045;-47
2022/12/07 03:26:47;;;;;;;45.30;16.15;;;;;;;;;;5068201;28;20036;-48
2022/12/07 03:29:19;;;;;;;38.95;14.77;;;;;;;;;;5068221;28;20563;-45
2022/12/07 03:31:48;;;;;;;45.80;16.00;;;;;;;;;;5063008;28;20131;-48
2022/12/07 03:34:21;;;;;;;60.45;18.00;;;;;;;;;;5067443;28;20064;-47
2022/12/07 03:36:48;;;;;;;;;;;;;;;;;;5067954;28;20052;-47
2022/12/07 03:39:14;;;;;;;41.55;14.68;;;;;;;;;;5068033;28;19928;-46
2022/12/07 03:41:41;;;;;;;36.13;12.43;;;;;;;;;;5067764;28;20115;-47
2022/12/07 03:44:12;;;;;;;49.28;15.57;;;;;;;;;;5066649;28;20068;-46
2022/12/07 03:46:50;;;;;;;63.42;14.82;;;;;;;;;;5067727;28;20032;-46
2022/12/07 03:49:30;;;;;;;38.50;14.30;;;;;;;;;;5067852;28;20051;-47
2022/12/07 03:52:08;;;;;;;62.03;17.50;;;;;;;;;;5066102;28;20400;-46
2022/12/07 03:54:35;;;;;;;37.55;13.55;;;;;;;;;;5068905;28;20420;-45
2022/12/07 03:57:02;;;;;;;55.67;15.57;;;;;;;;;;5067368;28;20052;-46
2022/12/07 03:59:29;;;;;;;47.38;14.95;;;;;;;;;;5066962;28;20396;-44
2022/12/07 04:01:57;;;;;;;63.22;15.82;;;;;;;;;;5066968;28;20706;-45
2022/12/07 04:04:24;;;;;;;48.95;15.05;;;;;;;;;;5067338;28;20036;-46
2022/12/07 04:06:51;;;;;;;41.60;13.80;;;;;;;;;;5067594;28;20098;-45
2022/12/07 04:09:17;;;;;;;26.65;11.90;;;;;;;;;;5068276;28;20041;-45
2022/12/07 04:11:44;;;;;;;36.78;13.20;;;;;;;;;;5067195;28;20086;-44
2022/12/07 04:14:19;;;;;;;45.65;13.65;;;;;;;;;;5066199;28;20064;-45
2022/12/07 04:16:47;;;;;;;36.97;13.30;;;;;;;;;;5068219;28;20043;-45
2022/12/07 04:19:14;;;;;;;49.53;13.40;;;;;;;;;;5066512;28;20079;-46
2022/12/07 04:21:41;;;;;;;49.35;15.15;;;;;;;;;;5062386;28;20455;-45
2022/12/07 04:24:08;;;;;;;47.65;12.32;;;;;;;;;;5067184;28;20048;-45
2022/12/07 04:26:34;;;;;;;58.65;15.35;;;;;;;;;;5067300;28;20144;-46
2022/12/07 04:29:01;;;;;;;39.67;13.10;;;;;;;;;;5067857;28;20440;-45
2022/12/07 04:31:33;;;;;;;45.67;13.95;;;;;;;;;;5067232;28;20052;-45
2022/12/07 04:33:59;;;;;;;52.17;14.45;;;;;;;;;;5067419;28;20037;-45
2022/12/07 04:36:26;;;;;;;50.35;15.50;;;;;;;;;;5067940;28;20048;-46
2022/12/07 04:38:54;;;;;;;43.55;16.27;;;;;;;;;;5067439;28;20079;-46
2022/12/07 04:41:26;;;;;;;46.35;15.48;;;;;;;;;;5066921;28;20036;-46
2022/12/07 04:43:57;;;;;;;34.03;12.50;;;;;;;;;;5068939;28;20416;-47
2022/12/07 04:46:24;;;;;;;47.53;15.48;;;;;;;;;;5070218;28;20041;-45
2022/12/07 04:48:51;;;;;;;49.92;15.27;;;;;;;;;;5067891;28;20093;-46
2022/12/07 04:51:22;;;;;;;36.58;12.15;;;;;;;;;;5071187;28;20041;-45
2022/12/07 04:53:49;;;;;;;43.42;13.32;;;;;;;;;;5070486;28;20119;-46
2022/12/07 04:56:16;;;;;;;48.50;14.60;;;;;;;;;;5070192;28;20119;-45
2022/12/07 04:58:43;;;;;;;45.33;13.77;;;;;;;;;;5070581;28;20037;-45
2022/12/07 05:01:10;;;;;;;60.22;15.93;;;;;;;;;;5070554;28;20083;-45
2022/12/07 05:03:37;;;;;;;43.20;14.85;;;;;;;;;;5072124;28;20037;-45
2022/12/07 05:06:04;;;;;;;39.28;12.65;;;;;;;;;;5070024;28;20571;-45
2022/12/07 05:08:37;;;;;;;56.33;16.42;;;;;;;;;;5084524;28;20492;-45
2022/12/07 05:11:05;;;;;;;52.60;15.88;;;;;;;;;;5070309;28;20055;-48
2022/12/07 05:13:32;;;;;;;45.55;14.50;;;;;;;;;;5070468;28;20415;-45
2022/12/07 05:15:58;;;;;;;61.55;15.38;;;;;;;;;;5070528;28;20048;-46
2022/12/07 05:18:25;;;;;;;40.67;13.48;;;;;;;;;;5068632;28;20084;-46
2022/12/07 05:20:51;;;;;;;43.00;13.07;;;;;;;;;;5069847;28;20439;-47
2022/12/07 05:23:18;;;;;;;56.17;15.32;;;;;;;;;;5069768;28;20041;-46
2022/12/07 05:25:46;;;;;;;34.80;13.27;;;;;;;;;;5070343;28;20051;-46
2022/12/07 05:28:12;;;;;;;51.17;14.32;;;;;;;;;;5070489;28;20097;-45
2022/12/07 05:30:39;;;;;;;51.00;14.95;;;;;;;;;;5070936;28;20041;-44
2022/12/07 05:33:05;;;;;;;41.22;13.40;;;;;;;;;;5070094;28;20098;-46
2022/12/07 05:35:32;;;;;;;43.28;14.55;;;;;;;;;;5069899;28;20041;-46
2022/12/07 05:37:58;;;;;;;44.03;13.25;;;;;;;;;;5070145;28;20507;-45
2022/12/07 05:40:25;;;;;;;42.97;13.45;;;;;;;;;;5069565;28;20417;-46
2022/12/07 05:42:51;;;;;;;41.33;12.70;;;;;;;;;;5070625;28;20047;-44
2022/12/07 05:45:18;;;;;;;34.78;13.05;;;;;;;;;;5070428;28;20040;-46
2022/12/07 05:47:44;;;;;;;48.42;16.00;;;;;;;;;;5069630;28;20044;-45
2022/12/07 05:50:11;;;;;;;81.18;17.80;;;;;;;;;;5067014;28;20041;-48
2022/12/07 05:52:38;;;;;;;51.13;14.23;;;;;;;;;;5068514;28;20637;-45
2022/12/07 05:55:06;;;;;;;58.85;16.50;;;;;;;;;;5067895;28;20041;-47
2022/12/07 05:57:33;;;;;;;45.13;15.20;;;;;;;;;;5068379;28;20489;-46
2022/12/07 05:59:59;;;;;;;49.22;14.55;;;;;;;;;;5068979;28;20039;-48
2022/12/07 06:02:26;;;;;;;38.95;13.38;;;;;;;;;;5069401;28;20082;-45
2022/12/07 06:04:53;;;;;;;27.73;11.05;;;;;;;;;;5069070;28;20036;-48
2022/12/07 06:07:20;;;;;;;32.72;12.48;;;;;;;;;;5069561;28;20045;-49
2022/12/07 06:09:46;;;;;;;50.03;14.35;;;;;;;;;;5070369;28;20496;-47
2022/12/07 06:14:58;;;;;;;46.58;13.27;;;;;;;;;;5066717;28;20140;-46
2022/12/07 06:17:25;;;;;;;36.35;11.68;;;;;;;;;;5068858;28;20048;-46
2022/12/07 06:19:51;;;;;;;29.40;11.30;;;;;;;;;;5068084;28;20495;-48
2022/12/07 06:22:18;;;;;;;42.35;12.55;;;;;;;;;;5068784;28;20075;-48
2022/12/07 06:24:44;;;;;;;40.17;12.32;;;;;;;;;;5069347;28;20104;-48
2022/12/07 06:27:11;;;;;;;34.05;13.27;;;;;;;;;;5069275;28;20049;-48
2022/12/07 06:29:37;;;;;;;39.75;13.35;;;;;;;;;;5068673;28;20043;-47
2022/12/07 06:32:04;;;;;;;50.13;14.05;;;;;;;;;;5065001;28;20059;-48
2022/12/07 06:34:31;;;;;;;34.05;12.85;;;;;;;;;;5069047;28;20044;-47
2022/12/07 06:36:57;;;;;;;71.13;16.58;;;;;;;;;;5065346;28;20094;-48
2022/12/07 06:39:25;;;;;;;54.50;15.38;;;;;;;;;;5069002;28;20152;-46
2022/12/07 06:41:52;;;;;;;56.70;17.92;;;;;;;;;;5068249;28;20047;-48
2022/12/07 06:44:19;;;;;;;45.10;15.02;;;;;;;;;;5068813;28;20048;-48
2022/12/07 06:46:46;;;;;;;36.03;14.27;;;;;;;;;;5069170;28;20036;-49
2022/12/07 06:49:13;;;;;;;55.22;17.38;;;;;;;;;;5067250;28;23226;-46
2022/12/07 06:51:41;;;;;;;52.58;16.27;;;;;;;;;;5068887;28;20098;-49
2022/12/07 06:54:11;;;;;;;55.00;15.98;;;;;;;;;;5068011;28;20033;-48
2022/12/07 06:56:37;;;;;;;44.60;13.68;;;;;;;;;;5067591;28;20074;-47
2022/12/07 06:59:06;;;;;;;54.75;14.63;;;;;;;;;;5067787;28;20082;-47
2022/12/07 07:01:33;;;;;;;50.15;15.80;;;;;;;;;;5067567;28;20040;-46
2022/12/07 07:04:00;;;;;;;42.90;13.32;;;;;;;;;;5068117;28;20412;-45
2022/12/07 07:06:27;;;;;;;42.20;12.20;;;;;;;;;;5068629;28;20063;-51
2022/12/07 07:08:53;;;;;;;37.35;13.05;;;;;;;;;;5068940;28;20449;-48
2022/12/07 07:11:20;;;;;;;35.47;12.32;;;;;;;;;;5068244;28;20036;-46
2022/12/07 07:13:47;;;;;;;38.92;12.90;;;;;;;;;;5068449;28;20052;-47
2022/12/07 07:16:13;;;;;;;45.85;12.93;;;;;;;;;;5068206;28;20769;-49
2022/12/07 07:18:40;;;;;;;35.75;12.07;;;;;;;;;;5066285;28;20042;-48
2022/12/07 07:21:07;;;;;;;41.58;11.95;;;;;;;;;;5068485;28;20040;-48
2022/12/07 07:23:33;;;;;;;39.00;12.10;;;;;;;;;;5068688;28;20036;-49
2022/12/07 07:26:00;;;;;;;39.83;12.15;;;;;;;;;;5067948;28;20381;-48
2022/12/07 07:28:26;;;;;;;42.05;13.50;;;;;;;;;;5068174;28;20040;-48
2022/12/07 07:30:53;;;;;;;39.13;13.02;;;;;;;;;;5069312;28;20052;-46
2022/12/07 07:33:19;;;;;;;31.20;12.25;;;;;;;;;;5068910;28;20058;-49
2022/12/07 07:35:46;;;;;;;46.55;12.10;;;;;;;;;;5068419;28;20032;-47
2022/12/07 07:38:12;;;;;;;35.17;12.00;;;;;;;;;;5060320;28;20516;-48
2022/12/07 07:40:39;;;;;;;50.10;14.20;;;;;;;;;;5067971;28;20044;-48
2022/12/07 07:43:05;;;;;;;49.67;14.35;;;;;;;;;;5068515;28;20487;-47
2022/12/07 07:45:32;;;;;;;39.83;13.57;;;;;;;;;;5068841;28;20040;-48
2022/12/07 07:47:58;;;;;;;35.70;12.25;;;;;;;;;;5068300;28;20044;-49
2022/12/07 07:50:25;;;;;;;37.58;12.75;;;;;;;;;;5068015;28;20032;-50
2022/12/07 07:52:52;;;;;;;39.53;13.57;;;;;;;;;;5068749;28;20691;-46
2022/12/07 07:55:18;;;;;;;28.55;12.20;;;;;;;;;;5067934;28;20036;-47
2022/12/07 07:57:45;;;;;;;38.42;11.80;;;;;;;;;;5068791;28;20049;-46
2022/12/07 08:00:19;;;;;;;38.65;12.50;;;;;;;;;;5067858;28;20049;-46
2022/12/07 08:02:46;;;;;;;38.47;13.07;;;;;;;;;;5068032;28;20045;-50
2022/12/07 08:05:13;;;;;;;37.33;12.52;;;;;;;;;;5067814;28;20467;-45
2022/12/07 08:07:40;;;;;;;33.97;11.30;;;;;;;;;;5067777;28;20040;-48
2022/12/07 08:10:07;;;;;;;85.93;17.33;;;;;;;;;;5065395;28;20072;-48
2022/12/07 08:12:35;;;;;;;56.28;15.38;;;;;;;;;;5066614;28;20051;-47
2022/12/07 08:15:02;;;;;;;41.67;12.90;;;;;;;;;;5067863;28;20040;-49
2022/12/07 08:17:28;;;;;;;38.80;12.40;;;;;;;;;;5068756;28;20935;-45
2022/12/07 08:19:56;;;;;;;35.47;12.40;;;;;;;;;;5067899;28;20029;-45
2022/12/07 08:22:22;;;;;;;46.08;15.35;;;;;;;;;;5066541;28;20797;-46
2022/12/07 08:24:49;;;;;;;33.33;13.23;;;;;;;;;;5065195;28;20509;-46
2022/12/07 08:27:15;;;;;;;32.55;12.10;;;;;;;;;;5061657;28;20059;-48
2022/12/07 08:29:42;;;;;;;40.42;12.85;;;;;;;;;;5063801;28;20080;-48
2022/12/07 08:32:08;;;;;;;43.55;13.85;;;;;;;;;;5064492;28;20570;-51
2022/12/07 08:34:36;;;;;;;42.05;14.15;;;;;;;;;;5071614;28;20033;-47
2022/12/07 08:37:03;;;;;;;61.60;16.75;;;;;;;;;;5071383;28;20041;-48
2022/12/07 08:39:29;;;;;;;41.97;13.00;;;;;;;;;;5071791;28;20127;-48
2022/12/07 08:41:58;;;;;;;48.10;14.23;;;;;;;;;;5067881;28;20045;-47
2022/12/07 08:44:24;;;;;;;49.20;15.30;;;;;;;;;;5071070;28;20037;-48
2022/12/07 08:46:53;;;;;;;41.80;14.55;;;;;;;;;;5071460;28;20033;-48
2022/12/07 08:49:27;;;;;;;38.13;14.48;;;;;;;;;;5070507;28;20045;-47
2022/12/07 08:51:55;;;;;;;42.85;14.57;;;;;;;;;;5070521;28;20512;-47
2022/12/07 08:54:22;;;;;;;49.22;16.70;;;;;;;;;;5070829;28;20044;-47
2022/12/07 08:56:50;;;;;;;55.33;15.70;;;;;;;;;;5070338;28;20070;-46
2022/12/07 08:59:24;;;;;;;41.35;13.77;;;;;;;;;;5070730;28;20453;-46
2022/12/07 09:01:51;;;;;;;42.25;16.50;;;;;;;;;;5071237;28;20132;-46
2022/12/07 09:04:17;;;;;;;69.72;17.77;;;;;;;;;;5070047;28;20040;-45
2022/12/07 09:06:44;;;;;;;39.78;15.43;;;;;;;;;;5071398;28;20052;-46
2022/12/07 09:09:11;;;;;;;61.30;19.33;;;;;;;;;;5070424;28;20127;-48
2022/12/07 09:11:38;;;;;;;77.25;20.85;;;;;;;;;;5069800;28;20040;-47
2022/12/07 09:14:05;;;;;;;65.78;19.70;;;;;;;;;;5068728;28;20083;-46
2022/12/07 09:16:32;;;;;;;58.22;18.75;;;;;;;;;;5070398;28;20044;-45
2022/12/07 09:18:58;;;;;;;79.47;21.98;;;;;;;;;;5068639;28;20095;-45
2022/12/07 09:21:25;;;;;;;60.65;20.08;;;;;;;;;;5071184;28;20055;-45
2022/12/07 09:23:51;;;;;;;45.65;17.88;;;;;;;;;;5066448;28;20044;-46
2022/12/07 09:26:18;;;;;;;67.78;20.13;;;;;;;;;;5069231;28;20059;-48
2022/12/07 09:28:44;;;;;;;51.05;17.98;;;;;;;;;;5069295;28;20519;-46
2022/12/07 09:31:11;;;;;;;52.83;17.70;;;;;;;;;;5068992;28;20044;-48
2022/12/07 09:33:53;;;;;;;52.72;17.83;;;;;;;;;;5071258;28;20413;-46
2022/12/07 09:36:20;;;;;;;54.35;19.60;;;;;;;;;;5070447;28;20114;-48
2022/12/07 09:38:46;;;;;;;43.15;17.35;;;;;;;;;;5069781;28;20047;-49
2022/12/07 09:41:13;;;;;;;46.53;15.88;;;;;;;;;;5069501;28;20040;-47
2022/12/07 09:43:40;;;;;;;47.90;17.05;;;;;;;;;;5069964;28;20041;-46
2022/12/07 09:46:11;;;;;;;60.78;17.60;;;;;;;;;;5070054;28;20043;-46
2022/12/07 09:48:39;;;;;;;51.15;18.02;;;;;;;;;;5070896;28;20037;-45
2022/12/07 09:51:18;;;;;;;55.83;17.20;;;;;;;;;;5069747;28;20127;-46
2022/12/07 09:53:50;;;;;;;55.05;17.77;;;;;;;;;;5065497;28;20040;-46
2022/12/07 09:56:17;;;;;;;60.30;18.45;;;;;;;;;;5068995;28;20044;-47
2022/12/07 09:58:44;;;;;;;49.90;17.27;;;;;;;;;;5069864;28;20033;-45
2022/12/07 10:01:15;;;;;;;55.88;18.55;;;;;;;;;;5068300;28;20037;-47
2022/12/07 10:03:47;;;;;;;40.95;14.68;;;;;;;;;;5070442;28;20101;-46
2022/12/07 10:06:14;;;;;;;56.67;17.27;;;;;;;;;;5067948;28;20080;-48
2022/12/07 10:08:43;;;;;;;42.10;15.65;;;;;;;;;;5069566;28;20028;-49
2022/12/07 10:11:10;;;;;;;47.03;15.95;;;;;;;;;;5067533;28;20032;-47
2022/12/07 10:13:36;;;;;;;52.63;16.83;;;;;;;;;;5069482;28;20111;-48
2022/12/07 10:16:03;;;;;;;59.65;17.08;;;;;;;;;;5068992;28;20037;-47
2022/12/07 10:18:36;;;;;;;55.40;16.67;;;;;;;;;;5067458;28;20040;-49
2022/12/07 10:21:10;;;;;;;42.53;13.57;;;;;;;;;;5068982;28;20041;-46
2022/12/07 10:23:37;;;;;;;47.78;13.90;;;;;;;;;;5067754;28;21101;-48
2022/12/07 10:26:24;;;;;;;50.38;14.60;;;;;;;;;;5068714;28;20041;-47
2022/12/07 10:28:50;;;;;;;39.88;13.80;;;;;;;;;;5058864;28;20518;-45
2022/12/07 10:31:19;;;;;;;40.25;12.90;;;;;;;;;;5069161;28;20044;-49
2022/12/07 10:33:49;;;;;;;45.65;14.77;;;;;;;;;;5069982;28;20488;-46
2022/12/07 10:36:19;;;;;;;48.38;14.10;;;;;;;;;;5068505;28;20623;-46
2022/12/07 10:38:51;;;;;;;48.92;15.25;;;;;;;;;;5068609;28;20516;-46
2022/12/07 10:41:18;;;;;;;37.22;13.50;;;;;;;;;;5067753;28;20105;-46
2022/12/07 10:43:49;;;;;;;44.78;13.88;;;;;;;;;;5067371;28;20040;-46
2022/12/07 10:46:26;;;;;;;61.90;15.95;;;;;;;;;;5067838;28;20048;-46
2022/12/07 10:48:59;;;;;;;44.35;14.00;;;;;;;;;;5069719;28;20076;-47
2022/12/07 10:51:44;;;;;;;49.22;15.88;;;;;;;;;;5069270;28;20044;-46
2022/12/07 10:54:43;;;;;;;40.85;14.77;;;;;;;;;;5068303;28;20223;-47
2022/12/07 10:57:28;;;;;;;48.45;16.30;;;;;;;;;;5025761;28;20068;-46
2022/12/07 10:59:57;;;;;;;54.75;16.58;;;;;;;;;;5025866;28;20049;-47
2022/12/07 11:02:23;;;;;;;53.88;16.75;;;;;;;;;;5025978;28;20053;-46
2022/12/07 11:05:08;;;;;;;40.03;15.70;;;;;;;;;;5026165;28;20042;-47
2022/12/07 11:07:41;;;;;;;43.15;14.70;;;;;;;;;;5022034;28;20061;-47
2022/12/07 11:10:08;;;;;;;80.03;18.95;;;;;;;;;;5008482;28;20474;-48
2022/12/07 11:13:02;;;;;;;38.60;13.65;;;;;;;;;;5026276;28;20460;-47
2022/12/07 11:15:37;;;;;;;41.35;15.00;;;;;;;;;;5026724;28;20038;-48
2022/12/07 11:18:33;;;;;;;51.63;15.73;;;;;;;;;;5025699;28;20049;-45
2022/12/07 11:21:18;;;;;;;54.83;15.77;;;;;;;;;;5017361;28;20049;-46
2022/12/07 11:23:48;;;;;;;37.50;14.13;;;;;;;;;;5022007;28;20068;-46
2022/12/07 11:26:26;;;;;;;46.85;14.77;;;;;;;;;;5025022;28;20215;-46
2022/12/07 11:28:56;;;;;;;41.58;15.68;;;;;;;;;;5026030;28;20494;-47
2022/12/07 11:31:30;;;;;;;49.65;16.60;;;;;;;;;;5026043;28;20045;-47
2022/12/07 11:34:00;;;;;;;39.72;16.20;;;;;;;;;;5063478;28;20052;-49
2022/12/07 11:36:41;;;;;;;43.28;15.85;;;;;;;;;;5083691;28;20117;-47
2022/12/07 11:39:23;;;;;;;51.15;16.75;;;;;;;;;;5066464;28;20044;-48
2022/12/07 11:41:56;;;;;;;35.95;15.90;;;;;;;;;;5062544;28;20123;-46
2022/12/07 11:44:23;;;;;;;48.83;15.77;;;;;;;;;;5067704;28;20155;-47
2022/12/07 11:47:00;;;;;;;34.38;13.38;;;;;;;;;;5067780;28;20409;-46
2022/12/07 11:49:37;;;;;;;44.92;14.63;;;;;;;;;;5064452;28;20037;-46
2022/12/07 11:52:05;;;;;;;44.67;13.98;;;;;;;;;;5067433;28;20162;-49
2022/12/07 11:54:35;;;;;;;34.95;13.20;;;;;;;;;;5072869;28;20044;-46
2022/12/07 11:57:04;;;;;;;33.90;13.68;;;;;;;;;;5071559;28;20036;-46
2022/12/07 11:59:35;;;;;;;44.78;14.88;;;;;;;;;;5071742;28;20048;-45
2022/12/07 12:02:22;;;;;;;43.97;16.10;;;;;;;;;;5071959;28;20052;-46
2022/12/07 12:05:08;;;;;;;30.92;14.55;;;;;;;;;;5072477;28;20028;-46
2022/12/07 12:07:36;;;;;;;43.58;15.43;;;;;;;;;;5067941;28;20047;-45
2022/12/07 12:10:28;;;;;;;47.15;15.55;;;;;;;;;;5070784;28;20059;-46
2022/12/07 12:13:02;;;;;;;36.25;15.60;;;;;;;;;;5073149;28;20052;-46
2022/12/07 12:15:57;;;;;;;41.75;16.23;;;;;;;;;;5071962;28;20510;-47
2022/12/07 12:18:43;;;;;;;41.78;17.77;;;;;;;;;;5070003;28;20068;-46
2022/12/07 12:21:12;;;;;;;39.92;16.55;;;;;;;;;;5069944;28;20029;-45
2022/12/07 12:23:56;;;;;;;33.63;14.82;;;;;;;;;;5071694;28;20036;-46
2022/12/07 12:26:23;;;;;;;34.33;15.65;;;;;;;;;;5068973;28;20032;-45
2022/12/07 12:28:50;;;;;;;36.40;15.10;;;;;;;;;;5067523;28;20033;-45
2022/12/07 12:31:17;;;;;;;49.65;17.90;;;;;;;;;;5069749;28;20052;-46
2022/12/07 12:33:51;;;;;;;34.55;14.88;;;;;;;;;;5072354;28;20048;-44
2022/12/07 12:36:17;;;;;;;38.72;15.05;;;;;;;;;;5066989;28;20039;-45
2022/12/07 12:38:49;;;;;;;33.40;14.52;;;;;;;;;;5064005;28;20048;-46
2022/12/07 12:41:34;;;;;;;40.65;16.67;;;;;;;;;;5069336;28;20028;-49
2022/12/07 12:44:01;;;;;;;48.33;17.23;;;;;;;;;;5065654;28;20032;-46
2022/12/07 12:46:33;;;;;;;49.90;17.80;;;;;;;;;;5066803;28;20032;-47
2022/12/07 12:49:15;;;;;;;65.57;20.27;;;;;;;;;;5067779;28;20048;-47
2022/12/07 12:51:42;;;;;;;35.15;16.13;;;;;;;;;;5072025;28;20040;-46
2022/12/07 12:54:18;;;;;;;41.08;16.40;;;;;;;;;;5068717;28;20048;-46
2022/12/07 12:56:50;;;;;;;42.67;16.50;;;;;;;;;;5070502;28;20083;-46
2022/12/07 12:59:28;;;;;;;48.08;17.83;;;;;;;;;;5068435;28;20135;-45
2022/12/07 13:02:13;;;;;;;52.45;18.38;;;;;;;;;;5067596;28;20086;-46
2022/12/07 13:04:49;;;;;;;44.47;15.63;;;;;;;;;;5069065;28;20081;-45
2022/12/07 13:07:35;;;;;;;55.85;17.13;;;;;;;;;;5071219;28;20075;-45
2022/12/07 13:10:02;;;;;;;69.03;18.10;;;;;;;;;;5067504;28;20048;-45
2022/12/07 13:12:29;;;;;;;43.28;14.57;;;;;;;;;;5070516;28;20404;-46
2022/12/07 13:14:57;;;;;;;44.75;15.50;;;;;;;;;;5069549;28;20040;-46
2022/12/07 13:17:32;;;;;;;34.65;14.73;;;;;;;;;;5070306;28;20043;-46
2022/12/07 13:20:07;;;;;;;46.28;16.23;;;;;;;;;;5068646;28;20045;-46
2022/12/07 13:22:43;;;;;;;33.85;13.30;;;;;;;;;;5070659;28;20106;-45
2022/12/07 13:25:13;;;;;;;59.00;16.65;;;;;;;;;;5070375;28;20058;-45
2022/12/07 13:27:41;;;;;;;38.20;14.43;;;;;;;;;;5069460;28;20060;-46
2022/12/07 13:30:13;;;;;;;44.78;14.05;;;;;;;;;;5069617;28;20044;-48
2022/12/07 13:32:40;;;;;;;47.63;14.45;;;;;;;;;;5069747;28;20433;-47
2022/12/07 13:35:25;;;;;;;47.00;14.63;;;;;;;;;;5069347;28;20048;-45
2022/12/07 13:37:52;;;;;;;38.80;13.82;;;;;;;;;;5070060;28;20475;-47
2022/12/07 13:40:19;;;;;;;56.35;16.45;;;;;;;;;;5068058;28;20049;-48
2022/12/07 13:42:46;;;;;;;33.15;14.63;;;;;;;;;;5071234;28;20489;-44
2022/12/07 13:45:21;;;;;;;36.88;14.43;;;;;;;;;;5070003;28;20040;-46
2022/12/07 13:47:57;;;;;;;30.27;13.68;;;;;;;;;;5070001;28;20412;-47
2022/12/07 13:50:25;;;;;;;44.53;14.55;;;;;;;;;;5066439;28;20032;-49
2022/12/07 13:52:55;;;;;;;33.53;13.02;;;;;;;;;;5070071;28;20123;-47
2022/12/07 13:55:21;;;;;;;32.08;12.68;;;;;;;;;;5069773;28;20052;-45
2022/12/07 13:57:50;;;;;;;34.08;13.05;;;;;;;;;;5070882;28;20040;-46
2022/12/07 14:00:18;;;;;;;48.22;14.20;;;;;;;;;;5069230;28;20083;-47
2022/12/07 14:03:01;;;;;;;34.95;12.80;;;;;;;;;;5069727;28;20048;-46
2022/12/07 14:05:32;;;;;;;38.30;13.50;;;;;;;;;;5069485;28;20593;-45
2022/12/07 14:07:58;;;;;;;41.60;13.15;;;;;;;;;;5066320;28;20032;-46
2022/12/07 14:10:25;;;;;;;41.50;14.00;;;;;;;;;;5069053;28;20067;-48
2022/12/07 14:12:52;;;;;;;31.73;13.90;;;;;;;;;;5070516;28;20052;-46
2022/12/07 14:15:23;;;;;;;31.33;13.40;;;;;;;;;;5069346;28;20037;-46
2022/12/07 14:17:51;;;;;;;34.67;13.05;;;;;;;;;;5069242;28;20032;-45
2022/12/07 14:20:36;;;;;;;39.45;14.10;;;;;;;;;;5065689;28;20044;-45
2022/12/07 14:23:08;;;;;;;41.53;14.88;;;;;;;;;;5069479;28;20067;-48
2022/12/07 14:25:48;;;;;;;41.05;14.77;;;;;;;;;;5065884;28;20488;-46
2022/12/07 14:28:26;;;;;;;61.33;17.10;;;;;;;;;;5069083;28;20136;-46
2022/12/07 14:30:52;;;;;;;44.90;17.23;;;;;;;;;;5069820;28;20052;-45
2022/12/07 14:33:20;;;;;;;56.28;19.08;;;;;;;;;;5069304;28;20538;-45
2022/12/07 14:35:46;;;;;;;39.38;17.08;;;;;;;;;;5069255;28;20401;-44